createdAt,value
2019-04-26T00:05:34.887Z,20.25
2019-04-26T00:08:05.353Z,25.52
2019-04-26T00:11:11.871Z,21.75
2019-04-26T00:39:11.842Z,25.27
2019-04-26T00:41:57.388Z,25.55
2019-04-26T00:44:27.639Z,21.33
2019-04-26T00:47:01.160Z,24.87
2019-04-26T00:49:44.961Z,24.72
2019-04-26T00:57:42.778Z,23.12
2019-04-26T01:08:32.309Z,24.52
2019-04-26T01:11:16.315Z,26.27
2019-04-26T01:14:16.573Z,23.85
2019-04-26T01:16:35.997Z,35.63
2019-04-26T01:28:23.414Z,27.27
2019-04-26T02:10:52.742Z,22.73
2019-04-26T02:13:27.024Z,29.27
2019-04-26T02:30:28.742Z,32.93
2019-04-26T02:33:01.859Z,34.78
2019-04-26T02:35:52.465Z,33.65
2019-04-26T02:38:35.113Z,29.48
2019-04-26T02:41:09.241Z,27.20
2019-04-26T02:43:41.676Z,26.97
2019-04-26T02:46:30.840Z,30.77
2019-04-26T02:49:43.295Z,34.05
2019-04-26T02:58:14.578Z,34.08
2019-04-26T03:00:46.549Z,32.60
2019-04-26T03:09:39.239Z,38.90
2019-04-26T03:12:16.683Z,36.25
2019-04-26T03:15:12.708Z,35.57
2019-04-26T03:17:44.112Z,31.73
2019-04-26T03:20:18.217Z,25.52
2019-04-26T03:23:41.520Z,31.40
2019-04-26T03:26:13.803Z,34.20
2019-04-26T03:29:16.122Z,31.00
2019-04-26T03:32:48.721Z,35.85
2019-04-26T03:35:26.151Z,30.62
2019-04-26T03:38:17.903Z,27.50
2019-04-26T03:41:22.056Z,38.78
2019-04-26T03:44:21.620Z,37.20
2019-04-26T03:47:02.526Z,31.10
2019-04-26T03:49:46.450Z,32.10
2019-04-26T03:52:47.710Z,30.00
2019-04-26T03:55:56.951Z,30.35
2019-04-26T03:58:41.911Z,32.08
2019-04-26T04:01:14.550Z,33.00
2019-04-26T04:03:57.477Z,35.90
2019-04-26T04:06:52.586Z,34.88
2019-04-26T04:09:10.140Z,31.80
2019-04-26T04:12:10.108Z,34.20
2019-04-26T04:14:42.847Z,32.83
2019-04-26T04:17:50.407Z,41.92
2019-04-26T04:21:09.877Z,33.10
2019-04-26T04:24:11.318Z,32.63
2019-04-26T04:26:57.953Z,35.20
2019-04-26T04:29:48.572Z,40.80
2019-04-26T04:32:23.975Z,31.87
2019-04-26T04:34:56.381Z,33.83
2019-04-26T04:37:31.567Z,31.93
2019-04-26T04:40:28.699Z,35.90
2019-04-26T04:43:24.613Z,32.55
2019-04-26T04:46:49.620Z,40.95
2019-04-26T04:49:35.065Z,43.00
2019-04-26T04:53:01.414Z,43.05
2019-04-26T04:56:14.770Z,36.93
2019-04-26T05:03:09.169Z,24.82
2019-04-26T05:06:15.585Z,23.50
2019-04-26T05:09:00.293Z,25.82
2019-04-26T05:11:37.977Z,30.90
2019-04-26T05:14:20.019Z,31.97
2019-04-26T05:17:10.693Z,28.80
2019-04-26T05:20:20.676Z,28.15
2019-04-26T05:26:39.354Z,24.57
2019-04-26T05:30:05.198Z,27.77
2019-04-26T05:33:19.504Z,26.25
2019-04-26T05:47:32.032Z,27.27
2019-04-26T05:50:38.945Z,33.28
2019-04-26T05:56:54.279Z,26.25
2019-04-26T05:59:34.310Z,25.25
2019-04-26T06:03:05.312Z,25.37
2019-04-26T06:06:19.519Z,31.60
2019-04-26T06:09:34.069Z,21.20
2019-04-26T06:12:31.967Z,25.55
2019-04-26T06:15:25.789Z,30.82
2019-04-26T06:18:46.582Z,27.22
2019-04-26T06:21:44.141Z,23.47
2019-04-26T06:24:39.462Z,26.90
2019-04-26T06:27:41.428Z,23.18
2019-04-26T06:30:46.484Z,26.05
2019-04-26T06:33:43.569Z,22.15
2019-04-26T06:36:24.111Z,20.20
2019-04-26T06:39:32.896Z,20.00
2019-04-26T06:42:45.545Z,23.95
2019-04-26T06:45:51.415Z,22.65
2019-04-26T06:48:42.935Z,31.30
2019-04-26T06:51:24.814Z,34.92
2019-04-26T06:54:10.442Z,30.37
2019-04-26T06:57:10.668Z,21.27
2019-04-26T06:59:52.771Z,19.62
2019-04-26T07:02:37.565Z,24.92
2019-04-26T07:05:22.329Z,22.20
2019-04-26T07:08:25.115Z,20.35
2019-04-26T07:11:59.354Z,25.32
2019-04-26T07:15:27.728Z,21.10
2019-04-26T07:18:10.727Z,29.70
2019-04-26T07:20:54.287Z,28.12
2019-04-26T07:24:13.331Z,21.57
2019-04-26T07:27:09.017Z,25.27
2019-04-26T07:30:15.149Z,21.95
2019-04-26T07:33:27.429Z,16.65
2019-04-26T07:36:20.001Z,21.68
2019-04-26T07:39:20.719Z,16.73
2019-04-26T07:42:30.685Z,20.15
2019-04-26T07:45:57.330Z,27.27
2019-04-26T07:48:53.677Z,15.43
2019-04-26T07:52:15.179Z,17.80
2019-04-26T07:55:26.946Z,18.17
2019-04-26T07:58:42.402Z,17.75
2019-04-26T08:01:37.253Z,19.15
2019-04-26T08:04:11.537Z,20.50
2019-04-26T08:10:50.067Z,19.98
2019-04-26T08:18:13.065Z,19.82
2019-04-26T08:21:13.862Z,24.37
2019-04-26T08:24:21.577Z,25.92
2019-04-26T08:27:25.292Z,21.37
2019-04-26T08:30:51.289Z,16.15
2019-04-26T08:33:25.180Z,22.42
2019-04-26T08:35:57.413Z,19.42
2019-04-26T08:38:30.687Z,16.70
2019-04-26T08:41:20.976Z,21.20
2019-04-26T08:43:56.089Z,19.30
2019-04-26T08:46:44.480Z,18.60
2019-04-26T08:49:38.759Z,23.15
2019-04-26T08:52:38.282Z,18.57
2019-04-26T08:55:12.646Z,18.40
2019-04-26T08:57:45.657Z,19.02
2019-04-26T09:00:51.300Z,28.57
2019-04-26T09:03:53.333Z,19.15
2019-04-26T09:06:47.845Z,13.55
2019-04-26T09:09:28.664Z,18.80
2019-04-26T09:12:39.434Z,17.02
2019-04-26T09:15:30.230Z,20.82
2019-04-26T09:18:09.350Z,15.90
2019-04-26T09:20:42.921Z,15.65
2019-04-26T09:23:53.524Z,19.10
2019-04-26T09:26:48.322Z,17.52
2019-04-26T09:29:36.222Z,21.82
2019-04-26T09:32:20.368Z,19.77
2019-04-26T09:34:51.712Z,19.40
2019-04-26T09:37:23.878Z,16.57
2019-04-26T09:40:09.573Z,17.17
2019-04-26T09:42:54.011Z,22.13
2019-04-26T09:45:50.297Z,18.52
2019-04-26T09:48:29.026Z,19.55
2019-04-26T09:51:01.775Z,18.37
2019-04-26T09:53:43.328Z,18.57
2019-04-26T09:56:39.647Z,15.35
2019-04-26T09:59:12.181Z,14.95
2019-04-26T10:02:08.805Z,15.63
2019-04-26T10:07:58.359Z,14.75
2019-04-26T10:10:58.791Z,16.35
2019-04-26T10:13:57.048Z,17.73
2019-04-26T10:17:06.261Z,18.40
2019-04-26T10:19:44.504Z,12.23
2019-04-26T10:22:15.923Z,17.20
2019-04-26T10:24:51.516Z,11.05
2019-04-26T10:36:26.270Z,14.55
2019-04-26T10:42:41.716Z,10.72
2019-04-26T10:46:24.472Z,10.90
2019-04-26T10:48:45.480Z,8.50
2019-04-26T10:51:16.918Z,11.10
2019-04-26T10:54:09.490Z,11.45
2019-04-26T10:56:55.246Z,12.30
2019-04-26T11:00:01.595Z,7.92
2019-04-26T11:02:42.603Z,13.35
2019-04-26T11:05:20.140Z,8.58
2019-04-26T11:08:15.550Z,10.70
2019-04-26T11:11:03.308Z,19.60
2019-04-26T11:13:24.939Z,10.38
2019-04-26T11:16:07.084Z,12.88
2019-04-26T11:18:37.752Z,8.53
2019-04-26T11:21:07.495Z,10.70
2019-04-26T11:23:45.511Z,16.80
2019-04-26T11:26:21.869Z,12.88
2019-04-26T11:28:58.628Z,15.88
2019-04-26T11:31:36.007Z,12.07
2019-04-26T11:34:13.235Z,8.13
2019-04-26T11:37:17.528Z,10.80
2019-04-26T11:40:10.323Z,11.28
2019-04-26T11:42:37.797Z,16.12
2019-04-26T11:46:05.448Z,8.93
2019-04-26T11:51:27.453Z,9.28
2019-04-26T11:53:52.975Z,14.20
2019-04-26T11:56:16.351Z,14.07
2019-04-26T11:59:00.864Z,8.53
2019-04-26T12:01:41.991Z,8.10
2019-04-26T12:04:53.737Z,14.05
2019-04-26T12:08:46.524Z,9.98
2019-04-26T12:14:03.778Z,12.60
2019-04-26T12:16:27.941Z,7.25
2019-04-26T12:18:59.372Z,9.43
2019-04-26T12:21:35.334Z,11.22
2019-04-26T12:24:07.783Z,12.95
2019-04-26T12:26:57.566Z,10.53
2019-04-26T12:29:28.842Z,9.88
2019-04-26T12:32:01.575Z,9.40
2019-04-26T12:34:40.711Z,7.80
2019-04-26T12:37:19.817Z,8.48
2019-04-26T12:39:56.283Z,11.25
2019-04-26T12:45:21.771Z,12.58
2019-04-26T12:48:12.408Z,9.53
2019-04-26T12:50:42.483Z,13.18
2019-04-26T12:53:22.282Z,15.18
2019-04-26T12:56:00.431Z,16.23
2019-04-26T12:58:36.187Z,15.78
2019-04-26T13:01:12.024Z,13.88
2019-04-26T13:03:51.408Z,13.22
2019-04-26T13:06:31.939Z,11.70
2019-04-26T13:12:51.071Z,11.68
2019-04-26T13:16:16.639Z,13.60
2019-04-26T13:18:49.921Z,9.30
2019-04-26T13:21:26.563Z,14.33
2019-04-26T13:24:00.231Z,11.18
2019-04-26T13:26:34.832Z,20.10
2019-04-26T13:29:10.197Z,11.53
2019-04-26T13:31:45.221Z,14.83
2019-04-26T13:34:15.031Z,14.38
2019-04-26T13:36:44.705Z,16.15
2019-04-26T13:39:24.911Z,20.32
2019-04-26T13:42:24.611Z,15.43
2019-04-26T13:48:46.312Z,14.38
2019-04-26T13:51:18.152Z,14.03
2019-04-26T13:53:57.336Z,11.80
2019-04-26T13:56:45.325Z,13.20
2019-04-26T13:59:20.742Z,13.03
2019-04-26T14:01:50.330Z,11.40
2019-04-26T14:04:24.670Z,14.70
2019-04-26T14:07:03.601Z,13.43
2019-04-26T14:09:36.084Z,12.70
2019-04-26T14:12:18.219Z,16.20
2019-04-26T14:14:41.972Z,17.98
2019-04-26T14:17:19.138Z,10.08
2019-04-26T14:19:55.755Z,13.32
2019-04-26T14:22:29.870Z,14.90
2019-04-26T14:25:22.197Z,13.83
2019-04-26T14:28:06.507Z,20.88
2019-04-26T14:30:58.779Z,13.93
2019-04-26T14:34:01.237Z,15.48
2019-04-26T14:36:26.692Z,15.03
2019-04-26T14:39:06.065Z,15.18
2019-04-26T14:42:01.026Z,16.07
2019-04-26T14:45:07.368Z,9.73
2019-04-26T14:47:51.473Z,10.48
2019-04-26T14:50:33.683Z,16.80
2019-04-26T14:53:13.009Z,18.25
2019-04-26T14:58:48.114Z,16.80
2019-04-26T15:01:50.152Z,12.37
2019-04-26T15:04:43.212Z,21.00
2019-04-26T15:07:17.682Z,17.60
2019-04-26T15:10:24.342Z,19.73
2019-04-26T15:13:14.999Z,16.70
2019-04-26T15:15:42.669Z,22.22
2019-04-26T15:18:22.571Z,20.23
2019-04-26T15:21:05.136Z,18.02
2019-04-26T15:23:32.985Z,15.53
2019-04-26T15:26:05.734Z,15.48
2019-04-26T15:28:43.697Z,18.15
2019-04-26T15:34:19.187Z,17.25
2019-04-26T15:36:57.425Z,12.88
2019-04-26T15:39:44.473Z,20.77
2019-04-26T15:42:36.191Z,12.78
2019-04-26T15:45:27.353Z,18.82
2019-04-26T15:48:27.715Z,23.30
2019-04-26T15:50:57.308Z,14.60
2019-04-26T15:53:33.129Z,16.17
2019-04-26T15:56:10.153Z,19.50
2019-04-26T15:58:49.124Z,12.78
2019-04-26T16:01:18.321Z,13.65
2019-04-26T16:03:57.127Z,17.70
2019-04-26T16:06:26.948Z,20.15
2019-04-26T16:09:13.873Z,17.80
2019-04-26T16:11:42.815Z,15.58
2019-04-26T16:14:12.310Z,17.65
2019-04-26T16:16:43.152Z,22.17
2019-04-26T16:19:13.077Z,20.80
2019-04-26T16:21:42.971Z,23.98
2019-04-26T16:24:12.932Z,14.50
2019-04-26T16:26:50.484Z,11.50
2019-04-26T16:29:26.792Z,17.37
2019-04-26T16:32:16.777Z,17.80
2019-04-26T16:34:47.556Z,14.98
2019-04-26T16:37:21.841Z,16.77
2019-04-26T16:39:49.558Z,20.08
2019-04-26T16:42:19.433Z,17.90
2019-04-26T16:44:48.939Z,21.30
2019-04-26T16:47:18.529Z,13.32
2019-04-26T16:49:48.090Z,14.50
2019-04-26T16:52:19.770Z,16.07
2019-04-26T16:54:49.604Z,20.88
2019-04-26T16:57:19.154Z,16.73
2019-04-26T16:59:54.367Z,14.87
2019-04-26T17:02:25.550Z,18.02
2019-04-26T17:04:54.948Z,14.38
2019-04-26T17:07:27.578Z,13.53
2019-04-26T17:09:59.438Z,18.77
2019-04-26T17:12:46.227Z,18.02
2019-04-26T17:15:24.469Z,14.23
2019-04-26T17:17:50.454Z,21.05
2019-04-26T17:20:23.604Z,17.98
2019-04-26T17:23:05.424Z,12.63
2019-04-26T17:26:15.167Z,15.53
2019-04-26T17:28:46.046Z,26.25
2019-04-26T17:31:19.314Z,16.85
2019-04-26T17:33:57.310Z,13.62
2019-04-26T17:36:22.732Z,14.33
2019-04-26T17:39:01.293Z,11.50
2019-04-26T17:41:45.014Z,14.75
2019-04-26T17:44:14.416Z,19.92
2019-04-26T17:46:43.611Z,13.22
2019-04-26T17:49:13.159Z,16.42
2019-04-26T17:51:44.463Z,18.02
2019-04-26T17:54:41.501Z,24.57
2019-04-26T17:56:45.632Z,22.25
2019-04-26T17:59:32.617Z,17.23
2019-04-26T18:01:57.292Z,18.48
2019-04-26T18:04:40.616Z,18.62
2019-04-26T18:07:34.612Z,34.43
2019-04-26T18:09:56.865Z,50.15
2019-04-26T18:12:47.317Z,37.10
2019-04-26T18:18:24.480Z,28.98
2019-04-26T18:21:20.324Z,15.03
2019-04-26T18:32:33.585Z,22.27
2019-04-26T18:35:33.796Z,25.60
2019-04-26T18:38:26.640Z,34.95
2019-04-26T18:41:01.400Z,27.22
2019-04-26T18:43:38.372Z,16.55
2019-04-26T18:46:18.200Z,25.50
2019-04-26T18:49:04.520Z,18.05
2019-04-26T18:51:43.392Z,21.17
2019-04-26T18:54:20.115Z,39.53
2019-04-26T18:57:00.925Z,20.65
2019-04-26T18:59:30.129Z,19.10
2019-04-26T19:01:59.782Z,27.22
2019-04-26T19:04:31.385Z,22.75
2019-04-26T19:07:04.697Z,23.10
2019-04-26T19:09:56.615Z,20.60
2019-04-26T19:12:14.086Z,28.20
2019-04-26T19:15:09.265Z,16.35
2019-04-26T19:18:25.241Z,20.88
2019-04-26T19:20:34.957Z,18.70
2019-04-26T19:23:09.423Z,17.42
2019-04-26T19:25:45.873Z,15.90
2019-04-26T19:28:25.878Z,13.68
2019-04-26T19:30:59.534Z,19.15
2019-04-26T19:33:35.859Z,23.22
2019-04-26T19:36:07.705Z,15.55
2019-04-26T19:39:03.634Z,16.07
2019-04-26T19:41:34.675Z,19.67
2019-04-26T19:44:09.480Z,19.62
2019-04-26T19:47:06.619Z,20.85
2019-04-26T19:50:09.590Z,15.95
2019-04-26T19:53:01.604Z,16.40
2019-04-26T19:55:51.460Z,11.73
2019-04-26T19:58:25.608Z,15.75
2019-04-26T20:00:57.734Z,16.07
2019-04-26T20:03:32.049Z,17.75
2019-04-26T20:06:07.075Z,16.65
2019-04-26T20:11:39.704Z,12.50
2019-04-26T20:14:12.370Z,18.82
2019-04-26T20:19:47.537Z,14.73
2019-04-26T20:22:27.685Z,12.68
2019-04-26T20:24:57.886Z,21.20
2019-04-26T20:27:32.213Z,14.93
2019-04-26T20:30:12.581Z,13.32
2019-04-26T20:32:44.690Z,18.87
2019-04-26T20:35:26.134Z,24.35
2019-04-26T20:38:02.910Z,19.27
2019-04-26T20:40:47.099Z,20.02
2019-04-26T20:43:27.330Z,22.22
2019-04-26T20:46:12.453Z,23.18
2019-04-26T20:48:42.636Z,16.73
2019-04-26T20:51:11.020Z,21.97
2019-04-26T20:53:43.953Z,15.35
2019-04-26T20:56:18.726Z,24.50
2019-04-26T20:58:48.723Z,14.13
2019-04-26T21:01:19.708Z,18.27
2019-04-26T21:03:54.200Z,15.08
2019-04-26T21:06:24.070Z,18.37
2019-04-26T21:14:37.729Z,19.60
2019-04-26T21:17:11.572Z,21.45
2019-04-26T21:19:43.301Z,24.72
2019-04-26T21:22:13.132Z,22.25
2019-04-26T21:24:45.072Z,19.37
2019-04-26T21:27:44.632Z,17.45
2019-04-26T21:36:05.847Z,16.42
2019-04-26T21:38:45.560Z,14.05
2019-04-26T21:41:25.594Z,15.28
2019-04-26T21:44:07.681Z,14.10
2019-04-26T21:46:36.335Z,20.32
2019-04-26T21:49:09.043Z,11.65
2019-04-26T21:51:39.953Z,18.10
2019-04-26T21:54:19.358Z,17.40
2019-04-26T21:56:53.633Z,16.20
2019-04-26T21:59:28.609Z,15.83
2019-04-26T22:03:16.064Z,15.35
2019-04-26T22:07:25.638Z,16.00
2019-04-26T22:10:14.421Z,16.52
2019-04-26T22:19:14.499Z,17.23
2019-04-26T22:25:33.247Z,14.73
2019-04-26T22:27:54.041Z,13.38
2019-04-26T22:30:29.406Z,21.68
2019-04-26T22:33:00.675Z,17.55
2019-04-26T22:35:33.608Z,17.48
2019-04-26T22:38:08.610Z,16.27
2019-04-26T22:41:36.745Z,18.55
2019-04-26T22:44:07.774Z,19.98
2019-04-26T22:46:54.334Z,18.07
2019-04-26T22:49:41.880Z,21.77
2019-04-26T22:52:23.582Z,20.43
2019-04-26T22:54:53.743Z,18.65
2019-04-26T22:57:23.508Z,18.10
2019-04-26T22:59:57.427Z,16.48
2019-04-26T23:02:27.869Z,16.82
2019-04-26T23:05:00.623Z,21.70
2019-04-26T23:07:28.926Z,23.02
2019-04-26T23:09:58.564Z,19.17
2019-04-26T23:15:23.979Z,27.87
2019-04-26T23:18:08.257Z,18.02
2019-04-26T23:20:47.617Z,23.92
2019-04-26T23:23:19.922Z,19.12
2019-04-26T23:25:49.676Z,25.60
2019-04-26T23:28:19.354Z,20.48
2019-04-26T23:30:50.401Z,24.05
2019-04-26T23:33:23.809Z,29.15
2019-04-26T23:35:59.123Z,21.60
2019-04-26T23:38:34.522Z,20.50
2019-04-26T23:47:00.675Z,25.02
2019-04-26T23:49:27.921Z,24.30
2019-04-26T23:52:03.673Z,22.10
2019-04-26T23:54:32.338Z,26.02
2019-04-26T23:57:05.049Z,19.40
2019-04-26T23:59:35.677Z,21.77
